sensor_id;sensor_type;location;lat;lon;timestamp;P1;durP1;ratioP1;P2;durP2;ratioP2
22711;SDS011;11523;50.390;8.072;2023-07-08T03:53:04;17.13;;;10.88;;
22711;SDS011;11523;50.390;8.072;2023-07-08T03:55:37;15.00;;;9.73;;
22711;SDS011;11523;50.390;8.072;2023-07-08T03:58:03;14.10;;;9.65;;
22711;SDS011;11523;50.390;8.072;2023-07-08T04:00:29;15.00;;;10.18;;
22711;SDS011;11523;50.390;8.072;2023-07-08T04:02:55;16.33;;;11.32;;
22711;SDS011;11523;50.390;8.072;2023-07-08T04:05:21;20.08;;;11.32;;
22711;SDS011;11523;50.390;8.072;2023-07-08T04:07:48;20.38;;;11.57;;
22711;SDS011;11523;50.390;8.072;2023-07-08T04:10:14;14.48;;;10.27;;
22711;SDS011;11523;50.390;8.072;2023-07-08T04:12:41;14.20;;;10.05;;
22711;SDS011;11523;50.390;8.072;2023-07-08T04:15:08;13.52;;;10.05;;
22711;SDS011;11523;50.390;8.072;2023-07-08T04:17:39;17.83;;;10.15;;
22711;SDS011;11523;50.390;8.072;2023-07-08T04:20:06;16.58;;;10.00;;
22711;SDS011;11523;50.390;8.072;2023-07-08T04:22:33;15.55;;;10.02;;
22711;SDS011;11523;50.390;8.072;2023-07-08T04:24:59;13.40;;;10.43;;
22711;SDS011;11523;50.390;8.072;2023-07-08T04:27:25;12.85;;;10.07;;
22711;SDS011;11523;50.390;8.072;2023-07-08T04:29:51;13.27;;;9.85;;
22711;SDS011;11523;50.390;8.072;2023-07-08T04:32:17;14.18;;;10.43;;
22711;SDS011;11523;50.390;8.072;2023-07-08T04:34:43;13.32;;;10.23;;
22711;SDS011;11523;50.390;8.072;2023-07-08T04:37:10;17.10;;;10.93;;
22711;SDS011;11523;50.390;8.072;2023-07-08T04:39:37;13.90;;;10.32;;
22711;SDS011;11523;50.390;8.072;2023-07-08T04:42:03;11.25;;;9.68;;
22711;SDS011;11523;50.390;8.072;2023-07-08T04:44:29;14.80;;;10.63;;
22711;SDS011;11523;50.390;8.072;2023-07-08T04:46:57;14.68;;;10.05;;
22711;SDS011;11523;50.390;8.072;2023-07-08T04:49:23;10.82;;;9.27;;
22711;SDS011;11523;50.390;8.072;2023-07-08T04:51:52;15.75;;;10.13;;
22711;SDS011;11523;50.390;8.072;2023-07-08T04:54:19;11.57;;;9.95;;
22711;SDS011;11523;50.390;8.072;2023-07-08T04:56:45;13.75;;;10.10;;
22711;SDS011;11523;50.390;8.072;2023-07-08T04:59:13;12.88;;;10.40;;
22711;SDS011;11523;50.390;8.072;2023-07-08T05:01:39;15.45;;;10.40;;
22711;SDS011;11523;50.390;8.072;2023-07-08T05:04:05;13.82;;;10.00;;
22711;SDS011;11523;50.390;8.072;2023-07-08T05:06:32;15.30;;;10.63;;
22711;SDS011;11523;50.390;8.072;2023-07-08T05:08:58;14.80;;;10.93;;
22711;SDS011;11523;50.390;8.072;2023-07-08T05:11:24;13.95;;;10.27;;
22711;SDS011;11523;50.390;8.072;2023-07-08T05:13:50;12.80;;;10.43;;
22711;SDS011;11523;50.390;8.072;2023-07-08T05:16:16;15.60;;;10.45;;
22711;SDS011;11523;50.390;8.072;2023-07-08T05:18:42;15.15;;;10.40;;
22711;SDS011;11523;50.390;8.072;2023-07-08T05:21:09;14.57;;;10.10;;
22711;SDS011;11523;50.390;8.072;2023-07-08T05:23:35;15.95;;;10.65;;
22711;SDS011;11523;50.390;8.072;2023-07-08T05:26:01;14.85;;;10.65;;
22711;SDS011;11523;50.390;8.072;2023-07-08T05:28:28;13.93;;;10.07;;
22711;SDS011;11523;50.390;8.072;2023-07-08T05:30:54;13.57;;;10.50;;
22711;SDS011;11523;50.390;8.072;2023-07-08T05:33:20;14.48;;;10.15;;
22711;SDS011;11523;50.390;8.072;2023-07-08T05:35:53;13.60;;;10.57;;
22711;SDS011;11523;50.390;8.072;2023-07-08T05:38:19;12.35;;;9.60;;
22711;SDS011;11523;50.390;8.072;2023-07-08T05:40:53;13.90;;;10.00;;
22711;SDS011;11523;50.390;8.072;2023-07-08T05:43:19;18.17;;;10.90;;
22711;SDS011;11523;50.390;8.072;2023-07-08T05:45:46;13.30;;;10.35;;
22711;SDS011;11523;50.390;8.072;2023-07-08T05:48:12;16.05;;;10.00;;
22711;SDS011;11523;50.390;8.072;2023-07-08T05:50:38;14.80;;;9.55;;
22711;SDS011;11523;50.390;8.072;2023-07-08T05:53:04;13.05;;;9.80;;
22711;SDS011;11523;50.390;8.072;2023-07-08T05:55:31;15.38;;;10.18;;
22711;SDS011;11523;50.390;8.072;2023-07-08T05:57:57;14.40;;;10.57;;
22711;SDS011;11523;50.390;8.072;2023-07-08T06:00:23;14.10;;;9.43;;
22711;SDS011;11523;50.390;8.072;2023-07-08T06:02:49;13.57;;;9.73;;
22711;SDS011;11523;50.390;8.072;2023-07-08T06:05:15;14.73;;;10.07;;
22711;SDS011;11523;50.390;8.072;2023-07-08T06:07:41;13.00;;;9.52;;
22711;SDS011;11523;50.390;8.072;2023-07-08T06:10:07;10.77;;;9.13;;
22711;SDS011;11523;50.390;8.072;2023-07-08T06:12:33;15.80;;;9.65;;
22711;SDS011;11523;50.390;8.072;2023-07-08T06:14:59;12.48;;;8.90;;
22711;SDS011;11523;50.390;8.072;2023-07-08T06:17:26;12.65;;;8.60;;
22711;SDS011;11523;50.390;8.072;2023-07-08T06:19:52;11.75;;;9.20;;
22711;SDS011;11523;50.390;8.072;2023-07-08T06:22:17;13.75;;;8.98;;
22711;SDS011;11523;50.390;8.072;2023-07-08T06:24:43;13.45;;;9.55;;
22711;SDS011;11523;50.390;8.072;2023-07-08T06:27:10;13.05;;;8.68;;
22711;SDS011;11523;50.390;8.072;2023-07-08T06:29:36;15.73;;;8.45;;
22711;SDS011;11523;50.390;8.072;2023-07-08T06:32:02;10.85;;;8.15;;
22711;SDS011;11523;50.390;8.072;2023-07-08T06:34:28;13.80;;;8.35;;
22711;SDS011;11523;50.390;8.072;2023-07-08T06:36:54;11.02;;;8.15;;
22711;SDS011;11523;50.390;8.072;2023-07-08T06:39:20;10.82;;;7.88;;
22711;SDS011;11523;50.390;8.072;2023-07-08T06:41:46;12.05;;;8.75;;
22711;SDS011;11523;50.390;8.072;2023-07-08T06:44:12;11.70;;;7.90;;
22711;SDS011;11523;50.390;8.072;2023-07-08T06:46:38;11.25;;;8.48;;
22711;SDS011;11523;50.390;8.072;2023-07-08T06:49:04;9.05;;;7.57;;
22711;SDS011;11523;50.390;8.072;2023-07-08T06:51:33;13.10;;;8.18;;
22711;SDS011;11523;50.390;8.072;2023-07-08T06:53:59;11.68;;;7.70;;
22711;SDS011;11523;50.390;8.072;2023-07-08T06:56:29;10.95;;;8.10;;
22711;SDS011;11523;50.390;8.072;2023-07-08T06:58:55;11.98;;;7.75;;
22711;SDS011;11523;50.390;8.072;2023-07-08T07:01:21;14.70;;;7.97;;
22711;SDS011;11523;50.390;8.072;2023-07-08T07:03:47;12.98;;;9.10;;
22711;SDS011;11523;50.390;8.072;2023-07-08T07:06:13;13.00;;;9.15;;
22711;SDS011;11523;50.390;8.072;2023-07-08T07:08:39;12.90;;;8.85;;
22711;SDS011;11523;50.390;8.072;2023-07-08T07:11:05;11.20;;;8.18;;
22711;SDS011;11523;50.390;8.072;2023-07-08T07:13:31;12.75;;;9.23;;
22711;SDS011;11523;50.390;8.072;2023-07-08T07:15:57;10.45;;;8.40;;
22711;SDS011;11523;50.390;8.072;2023-07-08T07:18:23;15.40;;;8.38;;
22711;SDS011;11523;50.390;8.072;2023-07-08T07:20:50;14.77;;;7.80;;
22711;SDS011;11523;50.390;8.072;2023-07-08T07:23:16;12.43;;;7.47;;
22711;SDS011;11523;50.390;8.072;2023-07-08T07:25:43;11.02;;;7.57;;
22711;SDS011;11523;50.390;8.072;2023-07-08T07:28:10;11.13;;;7.50;;
22711;SDS011;11523;50.390;8.072;2023-07-08T07:30:36;10.68;;;7.43;;
22711;SDS011;11523;50.390;8.072;2023-07-08T07:33:02;11.88;;;7.43;;
22711;SDS011;11523;50.390;8.072;2023-07-08T07:35:28;10.20;;;7.15;;
22711;SDS011;11523;50.390;8.072;2023-07-08T07:37:54;11.75;;;7.00;;
22711;SDS011;11523;50.390;8.072;2023-07-08T07:40:20;10.90;;;7.03;;
22711;SDS011;11523;50.390;8.072;2023-07-08T07:42:46;10.52;;;7.40;;
22711;SDS011;11523;50.390;8.072;2023-07-08T07:45:12;8.82;;;7.10;;
22711;SDS011;11523;50.390;8.072;2023-07-08T07:47:38;10.00;;;7.20;;
22711;SDS011;11523;50.390;8.072;2023-07-08T07:50:05;9.00;;;7.43;;
22711;SDS011;11523;50.390;8.072;2023-07-08T07:52:32;9.85;;;7.55;;
22711;SDS011;11523;50.390;8.072;2023-07-08T07:54:58;10.40;;;6.35;;
22711;SDS011;11523;50.390;8.072;2023-07-08T07:57:24;8.65;;;6.65;;
22711;SDS011;11523;50.390;8.072;2023-07-08T07:59:50;10.70;;;6.88;;
22711;SDS011;11523;50.390;8.072;2023-07-08T08:02:16;10.20;;;6.55;;
22711;SDS011;11523;50.390;8.072;2023-07-08T08:04:42;10.52;;;7.60;;
22711;SDS011;11523;50.390;8.072;2023-07-08T08:07:08;9.95;;;6.82;;
22711;SDS011;11523;50.390;8.072;2023-07-08T08:09:35;11.60;;;7.00;;
22711;SDS011;11523;50.390;8.072;2023-07-08T08:12:01;7.43;;;6.63;;
22711;SDS011;11523;50.390;8.072;2023-07-08T08:14:27;9.43;;;6.68;;
22711;SDS011;11523;50.390;8.072;2023-07-08T08:16:53;10.68;;;7.10;;
22711;SDS011;11523;50.390;8.072;2023-07-08T08:19:19;10.48;;;6.15;;
22711;SDS011;11523;50.390;8.072;2023-07-08T08:21:45;7.63;;;6.32;;
22711;SDS011;11523;50.390;8.072;2023-07-08T08:24:11;7.85;;;6.20;;
22711;SDS011;11523;50.390;8.072;2023-07-08T08:26:37;7.43;;;6.20;;
22711;SDS011;11523;50.390;8.072;2023-07-08T08:29:03;8.82;;;6.63;;
22711;SDS011;11523;50.390;8.072;2023-07-08T08:31:29;8.30;;;6.72;;
22711;SDS011;11523;50.390;8.072;2023-07-08T08:33:56;8.10;;;6.45;;
22711;SDS011;11523;50.390;8.072;2023-07-08T08:36:22;6.88;;;6.10;;
22711;SDS011;11523;50.390;8.072;2023-07-08T08:38:48;8.35;;;6.10;;
22711;SDS011;11523;50.390;8.072;2023-07-08T08:41:18;7.22;;;6.35;;
22711;SDS011;11523;50.390;8.072;2023-07-08T08:43:44;7.63;;;6.07;;
22711;SDS011;11523;50.390;8.072;2023-07-08T08:48:48;10.98;;;6.10;;
22711;SDS011;11523;50.390;8.072;2023-07-08T08:51:15;6.72;;;5.38;;
22711;SDS011;11523;50.390;8.072;2023-07-08T08:53:41;6.80;;;5.75;;
22711;SDS011;11523;50.390;8.072;2023-07-08T08:56:20;6.30;;;5.63;;
22711;SDS011;11523;50.390;8.072;2023-07-08T08:58:54;7.80;;;5.78;;
22711;SDS011;11523;50.390;8.072;2023-07-08T09:01:21;7.78;;;6.25;;
22711;SDS011;11523;50.390;8.072;2023-07-08T09:04:03;7.88;;;5.85;;
22711;SDS011;11523;50.390;8.072;2023-07-08T09:06:32;8.93;;;5.75;;
22711;SDS011;11523;50.390;8.072;2023-07-08T09:09:03;7.95;;;6.32;;
22711;SDS011;11523;50.390;8.072;2023-07-08T09:11:35;11.27;;;5.82;;
22711;SDS011;11523;50.390;8.072;2023-07-08T09:14:03;8.13;;;6.15;;
22711;SDS011;11523;50.390;8.072;2023-07-08T09:16:39;8.85;;;5.88;;
22711;SDS011;11523;50.390;8.072;2023-07-08T09:19:07;9.07;;;6.63;;
22711;SDS011;11523;50.390;8.072;2023-07-08T09:21:44;8.32;;;6.22;;
22711;SDS011;11523;50.390;8.072;2023-07-08T09:24:17;8.00;;;6.25;;
22711;SDS011;11523;50.390;8.072;2023-07-08T09:26:44;8.18;;;6.20;;
22711;SDS011;11523;50.390;8.072;2023-07-08T09:29:10;8.77;;;6.25;;
22711;SDS011;11523;50.390;8.072;2023-07-08T09:31:37;8.43;;;5.97;;
22711;SDS011;11523;50.390;8.072;2023-07-08T09:34:14;8.43;;;6.38;;
22711;SDS011;11523;50.390;8.072;2023-07-08T09:36:41;9.25;;;6.30;;
22711;SDS011;11523;50.390;8.072;2023-07-08T09:39:14;9.35;;;6.10;;
22711;SDS011;11523;50.390;8.072;2023-07-08T09:41:41;9.63;;;6.38;;
22711;SDS011;11523;50.390;8.072;2023-07-08T09:44:24;7.28;;;5.78;;
22711;SDS011;11523;50.390;8.072;2023-07-08T09:46:55;7.25;;;6.40;;
22711;SDS011;11523;50.390;8.072;2023-07-08T09:49:30;7.90;;;6.18;;
22711;SDS011;11523;50.390;8.072;2023-07-08T09:52:18;10.05;;;5.85;;
22711;SDS011;11523;50.390;8.072;2023-07-08T09:54:51;11.00;;;6.05;;
22711;SDS011;11523;50.390;8.072;2023-07-08T09:57:27;7.85;;;6.30;;
22711;SDS011;11523;50.390;8.072;2023-07-08T10:00:00;7.93;;;6.20;;
22711;SDS011;11523;50.390;8.072;2023-07-08T10:04:55;7.90;;;7.03;;
22711;SDS011;11523;50.390;8.072;2023-07-08T10:07:21;7.57;;;5.95;;
22711;SDS011;11523;50.390;8.072;2023-07-08T10:09:48;8.77;;;6.38;;
22711;SDS011;11523;50.390;8.072;2023-07-08T10:12:16;8.73;;;6.50;;
22711;SDS011;11523;50.390;8.072;2023-07-08T10:14:44;8.38;;;6.53;;
22711;SDS011;11523;50.390;8.072;2023-07-08T10:17:13;7.25;;;6.13;;
22711;SDS011;11523;50.390;8.072;2023-07-08T10:19:40;7.57;;;6.63;;
22711;SDS011;11523;50.390;8.072;2023-07-08T10:35:25;8.13;;;6.50;;
22711;SDS011;11523;50.390;8.072;2023-07-08T10:37:57;10.30;;;6.75;;
22711;SDS011;11523;50.390;8.072;2023-07-08T10:40:31;9.15;;;6.80;;
22711;SDS011;11523;50.390;8.072;2023-07-08T10:45:39;10.15;;;6.65;;
22711;SDS011;11523;50.390;8.072;2023-07-08T10:51:02;11.45;;;7.47;;
22711;SDS011;11523;50.390;8.072;2023-07-08T10:56:16;7.38;;;6.47;;
22711;SDS011;11523;50.390;8.072;2023-07-08T10:58:52;8.27;;;6.70;;
22711;SDS011;11523;50.390;8.072;2023-07-08T11:01:28;7.20;;;6.32;;
22711;SDS011;11523;50.390;8.072;2023-07-08T11:04:06;8.73;;;6.05;;
22711;SDS011;11523;50.390;8.072;2023-07-08T11:06:40;10.15;;;6.07;;
22711;SDS011;11523;50.390;8.072;2023-07-08T11:09:07;12.00;;;6.43;;
22711;SDS011;11523;50.390;8.072;2023-07-08T11:11:36;9.48;;;6.63;;
22711;SDS011;11523;50.390;8.072;2023-07-08T11:14:09;9.15;;;6.35;;
22711;SDS011;11523;50.390;8.072;2023-07-08T11:16:37;9.20;;;6.78;;
22711;SDS011;11523;50.390;8.072;2023-07-08T11:21:40;8.45;;;6.53;;
22711;SDS011;11523;50.390;8.072;2023-07-08T11:24:18;9.43;;;7.07;;
22711;SDS011;11523;50.390;8.072;2023-07-08T11:26:47;8.35;;;7.10;;
22711;SDS011;11523;50.390;8.072;2023-07-08T11:29:19;8.38;;;6.20;;
22711;SDS011;11523;50.390;8.072;2023-07-08T11:31:46;13.32;;;6.72;;
22711;SDS011;11523;50.390;8.072;2023-07-08T11:34:12;9.32;;;5.82;;
22711;SDS011;11523;50.390;8.072;2023-07-08T11:36:38;8.48;;;6.20;;
22711;SDS011;11523;50.390;8.072;2023-07-08T11:39:05;12.00;;;6.40;;
22711;SDS011;11523;50.390;8.072;2023-07-08T11:41:51;12.10;;;6.97;;
22711;SDS011;11523;50.390;8.072;2023-07-08T11:44:19;10.00;;;6.20;;
22711;SDS011;11523;50.390;8.072;2023-07-08T11:46:55;9.02;;;6.35;;
22711;SDS011;11523;50.390;8.072;2023-07-08T11:49:21;10.38;;;6.57;;
22711;SDS011;11523;50.390;8.072;2023-07-08T11:51:48;9.07;;;6.47;;
22711;SDS011;11523;50.390;8.072;2023-07-08T11:54:19;7.60;;;6.50;;
22711;SDS011;11523;50.390;8.072;2023-07-08T11:57:15;6.53;;;5.85;;
22711;SDS011;11523;50.390;8.072;2023-07-08T11:59:37;9.82;;;6.30;;
22711;SDS011;11523;50.390;8.072;2023-07-08T12:02:12;8.02;;;6.60;;
22711;SDS011;11523;50.390;8.072;2023-07-08T12:07:20;10.00;;;6.65;;
22711;SDS011;11523;50.390;8.072;2023-07-08T12:09:58;7.15;;;6.45;;
22711;SDS011;11523;50.390;8.072;2023-07-08T12:12:26;10.20;;;6.97;;
22711;SDS011;11523;50.390;8.072;2023-07-08T12:14:54;9.10;;;6.38;;
22711;SDS011;11523;50.390;8.072;2023-07-08T12:17:24;7.22;;;6.53;;
22711;SDS011;11523;50.390;8.072;2023-07-08T12:19:50;7.88;;;6.32;;
22711;SDS011;11523;50.390;8.072;2023-07-08T12:22:16;12.00;;;6.47;;
22711;SDS011;11523;50.390;8.072;2023-07-08T12:24:43;8.48;;;6.47;;
22711;SDS011;11523;50.390;8.072;2023-07-08T12:27:09;9.65;;;6.47;;
22711;SDS011;11523;50.390;8.072;2023-07-08T12:29:36;7.38;;;6.45;;
22711;SDS011;11523;50.390;8.072;2023-07-08T12:32:02;8.93;;;6.75;;
22711;SDS011;11523;50.390;8.072;2023-07-08T12:34:28;10.60;;;6.70;;
22711;SDS011;11523;50.390;8.072;2023-07-08T12:36:54;9.55;;;6.53;;
22711;SDS011;11523;50.390;8.072;2023-07-08T12:39:20;6.38;;;5.78;;
22711;SDS011;11523;50.390;8.072;2023-07-08T12:41:46;9.23;;;5.80;;
22711;SDS011;11523;50.390;8.072;2023-07-08T12:44:18;7.43;;;6.55;;
22711;SDS011;11523;50.390;8.072;2023-07-08T12:46:44;8.88;;;6.70;;
22711;SDS011;11523;50.390;8.072;2023-07-08T12:49:11;11.05;;;6.10;;
22711;SDS011;11523;50.390;8.072;2023-07-08T12:51:37;11.43;;;6.20;;
22711;SDS011;11523;50.390;8.072;2023-07-08T12:54:08;8.25;;;5.40;;
22711;SDS011;11523;50.390;8.072;2023-07-08T12:56:34;7.82;;;6.00;;
22711;SDS011;11523;50.390;8.072;2023-07-08T12:59:01;9.75;;;5.47;;
22711;SDS011;11523;50.390;8.072;2023-07-08T13:01:28;8.75;;;5.82;;
22711;SDS011;11523;50.390;8.072;2023-07-08T13:03:56;9.57;;;6.38;;
22711;SDS011;11523;50.390;8.072;2023-07-08T13:06:23;6.97;;;6.28;;
22711;SDS011;11523;50.390;8.072;2023-07-08T13:08:51;8.52;;;6.07;;
22711;SDS011;11523;50.390;8.072;2023-07-08T13:11:18;7.72;;;5.72;;
22711;SDS011;11523;50.390;8.072;2023-07-08T13:16:15;7.45;;;5.70;;
22711;SDS011;11523;50.390;8.072;2023-07-08T13:18:41;7.85;;;5.78;;
22711;SDS011;11523;50.390;8.072;2023-07-08T13:21:09;9.90;;;6.13;;
22711;SDS011;11523;50.390;8.072;2023-07-08T13:23:35;9.40;;;5.82;;
22711;SDS011;11523;50.390;8.072;2023-07-08T13:26:11;10.27;;;6.20;;
22711;SDS011;11523;50.390;8.072;2023-07-08T13:28:38;7.20;;;5.80;;
22711;SDS011;11523;50.390;8.072;2023-07-08T13:31:14;8.38;;;5.78;;
22711;SDS011;11523;50.390;8.072;2023-07-08T13:33:44;7.63;;;5.55;;
22711;SDS011;11523;50.390;8.072;2023-07-08T13:36:11;7.80;;;5.95;;
22711;SDS011;11523;50.390;8.072;2023-07-08T13:38:39;10.85;;;5.65;;
22711;SDS011;11523;50.390;8.072;2023-07-08T13:41:05;9.63;;;5.78;;
22711;SDS011;11523;50.390;8.072;2023-07-08T13:43:32;11.18;;;5.68;;
22711;SDS011;11523;50.390;8.072;2023-07-08T13:45:59;7.25;;;5.55;;
22711;SDS011;11523;50.390;8.072;2023-07-08T13:48:41;7.50;;;5.50;;
22711;SDS011;11523;50.390;8.072;2023-07-08T13:51:09;7.88;;;5.70;;
22711;SDS011;11523;50.390;8.072;2023-07-08T13:56:10;9.43;;;6.13;;
22711;SDS011;11523;50.390;8.072;2023-07-08T13:58:41;10.88;;;5.88;;
22711;SDS011;11523;50.390;8.072;2023-07-08T14:01:08;9.07;;;5.88;;
22711;SDS011;11523;50.390;8.072;2023-07-08T14:03:40;7.30;;;6.20;;
22711;SDS011;11523;50.390;8.072;2023-07-08T14:06:10;8.85;;;6.10;;
22711;SDS011;11523;50.390;8.072;2023-07-08T14:08:39;7.47;;;5.85;;
22711;SDS011;11523;50.390;8.072;2023-07-08T14:11:05;10.10;;;6.15;;
22711;SDS011;11523;50.390;8.072;2023-07-08T14:13:37;7.28;;;5.90;;
22711;SDS011;11523;50.390;8.072;2023-07-08T14:16:03;8.35;;;6.50;;
22711;SDS011;11523;50.390;8.072;2023-07-08T14:18:32;8.95;;;6.90;;
22711;SDS011;11523;50.390;8.072;2023-07-08T14:21:00;9.82;;;6.32;;
22711;SDS011;11523;50.390;8.072;2023-07-08T14:23:26;9.93;;;6.70;;
22711;SDS011;11523;50.390;8.072;2023-07-08T14:25:52;10.40;;;6.63;;
22711;SDS011;11523;50.390;8.072;2023-07-08T14:31:13;7.45;;;6.57;;
22711;SDS011;11523;50.390;8.072;2023-07-08T14:42:44;7.88;;;5.65;;
22711;SDS011;11523;50.390;8.072;2023-07-08T14:45:40;11.30;;;6.50;;
22711;SDS011;11523;50.390;8.072;2023-07-08T14:48:37;12.05;;;5.95;;
22711;SDS011;11523;50.390;8.072;2023-07-08T14:51:03;7.85;;;5.93;;
22711;SDS011;11523;50.390;8.072;2023-07-08T14:53:29;8.18;;;5.57;;
22711;SDS011;11523;50.390;8.072;2023-07-08T14:55:55;7.03;;;6.10;;
22711;SDS011;11523;50.390;8.072;2023-07-08T14:58:25;9.88;;;6.18;;
22711;SDS011;11523;50.390;8.072;2023-07-08T15:00:53;9.52;;;5.88;;
22711;SDS011;11523;50.390;8.072;2023-07-08T15:03:21;7.20;;;6.13;;
22711;SDS011;11523;50.390;8.072;2023-07-08T15:05:47;6.10;;;5.28;;
22711;SDS011;11523;50.390;8.072;2023-07-08T15:08:18;7.70;;;5.88;;
22711;SDS011;11523;50.390;8.072;2023-07-08T15:10:48;10.20;;;6.40;;
22711;SDS011;11523;50.390;8.072;2023-07-08T15:13:15;11.30;;;6.00;;
22711;SDS011;11523;50.390;8.072;2023-07-08T15:15:41;8.50;;;5.95;;
22711;SDS011;11523;50.390;8.072;2023-07-08T15:18:12;11.93;;;6.75;;
22711;SDS011;11523;50.390;8.072;2023-07-08T15:20:38;9.48;;;5.88;;
22711;SDS011;11523;50.390;8.072;2023-07-08T15:23:04;8.82;;;5.90;;
22711;SDS011;11523;50.390;8.072;2023-07-08T15:25:38;8.57;;;5.47;;
22711;SDS011;11523;50.390;8.072;2023-07-08T15:28:11;7.50;;;5.57;;
22711;SDS011;11523;50.390;8.072;2023-07-08T15:30:40;8.43;;;4.90;;
22711;SDS011;11523;50.390;8.072;2023-07-08T15:33:14;7.25;;;5.63;;
22711;SDS011;11523;50.390;8.072;2023-07-08T15:35:41;9.63;;;5.70;;
22711;SDS011;11523;50.390;8.072;2023-07-08T15:38:08;9.05;;;6.38;;
22711;SDS011;11523;50.390;8.072;2023-07-08T15:40:40;9.90;;;6.70;;
22711;SDS011;11523;50.390;8.072;2023-07-08T15:43:08;12.30;;;5.80;;
22711;SDS011;11523;50.390;8.072;2023-07-08T15:45:35;8.13;;;5.80;;
22711;SDS011;11523;50.390;8.072;2023-07-08T15:48:02;8.43;;;6.15;;
22711;SDS011;11523;50.390;8.072;2023-07-08T15:50:28;9.40;;;5.72;;
22711;SDS011;11523;50.390;8.072;2023-07-08T15:52:54;7.55;;;6.00;;
22711;SDS011;11523;50.390;8.072;2023-07-08T15:55:23;9.13;;;5.55;;
22711;SDS011;11523;50.390;8.072;2023-07-08T15:57:53;8.73;;;6.07;;
22711;SDS011;11523;50.390;8.072;2023-07-08T16:00:22;10.35;;;5.85;;
22711;SDS011;11523;50.390;8.072;2023-07-08T16:02:50;8.93;;;5.45;;
22711;SDS011;11523;50.390;8.072;2023-07-08T16:05:17;8.98;;;5.97;;
22711;SDS011;11523;50.390;8.072;2023-07-08T16:10:20;7.40;;;5.80;;
22711;SDS011;11523;50.390;8.072;2023-07-08T16:12:46;7.20;;;5.38;;
22711;SDS011;11523;50.390;8.072;2023-07-08T16:15:14;6.80;;;5.78;;
22711;SDS011;11523;50.390;8.072;2023-07-08T16:17:41;8.48;;;5.43;;
22711;SDS011;11523;50.390;8.072;2023-07-08T16:20:18;9.10;;;5.53;;
22711;SDS011;11523;50.390;8.072;2023-07-08T16:22:44;11.68;;;5.78;;
22711;SDS011;11523;50.390;8.072;2023-07-08T16:25:12;6.35;;;5.55;;
22711;SDS011;11523;50.390;8.072;2023-07-08T16:27:38;8.45;;;5.47;;
22711;SDS011;11523;50.390;8.072;2023-07-08T16:30:04;7.60;;;5.47;;
22711;SDS011;11523;50.390;8.072;2023-07-08T16:32:30;8.52;;;5.93;;
22711;SDS011;11523;50.390;8.072;2023-07-08T16:34:56;7.85;;;5.57;;
22711;SDS011;11523;50.390;8.072;2023-07-08T16:37:22;6.65;;;5.28;;
22711;SDS011;11523;50.390;8.072;2023-07-08T16:39:48;10.25;;;6.22;;
22711;SDS011;11523;50.390;8.072;2023-07-08T16:42:15;11.35;;;6.03;;
22711;SDS011;11523;50.390;8.072;2023-07-08T16:44:41;14.63;;;6.30;;
22711;SDS011;11523;50.390;8.072;2023-07-08T16:47:08;11.80;;;5.82;;
22711;SDS011;11523;50.390;8.072;2023-07-08T16:49:34;9.65;;;5.90;;
22711;SDS011;11523;50.390;8.072;2023-07-08T16:52:00;13.13;;;6.25;;
22711;SDS011;11523;50.390;8.072;2023-07-08T16:54:26;9.00;;;6.00;;
22711;SDS011;11523;50.390;8.072;2023-07-08T16:56:52;8.13;;;5.53;;
22711;SDS011;11523;50.390;8.072;2023-07-08T16:59:18;8.85;;;6.10;;
22711;SDS011;11523;50.390;8.072;2023-07-08T17:01:44;7.90;;;5.72;;
22711;SDS011;11523;50.390;8.072;2023-07-08T17:04:13;9.55;;;5.95;;
22711;SDS011;11523;50.390;8.072;2023-07-08T17:06:40;13.50;;;5.72;;
22711;SDS011;11523;50.390;8.072;2023-07-08T17:09:08;8.13;;;6.20;;
22711;SDS011;11523;50.390;8.072;2023-07-08T17:11:34;9.82;;;5.30;;
22711;SDS011;11523;50.390;8.072;2023-07-08T17:14:00;8.32;;;6.05;;
22711;SDS011;11523;50.390;8.072;2023-07-08T17:16:27;9.05;;;5.57;;
22711;SDS011;11523;50.390;8.072;2023-07-08T17:18:54;7.13;;;5.55;;
22711;SDS011;11523;50.390;8.072;2023-07-08T17:21:21;9.75;;;5.75;;
22711;SDS011;11523;50.390;8.072;2023-07-08T17:23:47;8.55;;;5.82;;
22711;SDS011;11523;50.390;8.072;2023-07-08T17:26:13;10.02;;;5.80;;
22711;SDS011;11523;50.390;8.072;2023-07-08T17:28:39;8.85;;;5.95;;
22711;SDS011;11523;50.390;8.072;2023-07-08T17:31:05;7.22;;;5.78;;
22711;SDS011;11523;50.390;8.072;2023-07-08T17:33:35;7.72;;;5.40;;
22711;SDS011;11523;50.390;8.072;2023-07-08T17:36:04;10.48;;;5.80;;
22711;SDS011;11523;50.390;8.072;2023-07-08T17:38:38;8.60;;;5.45;;
22711;SDS011;11523;50.390;8.072;2023-07-08T17:41:09;6.97;;;5.55;;
22711;SDS011;11523;50.390;8.072;2023-07-08T17:43:35;9.18;;;5.68;;
22711;SDS011;11523;50.390;8.072;2023-07-08T17:46:01;8.02;;;5.65;;
22711;SDS011;11523;50.390;8.072;2023-07-08T17:48:27;8.82;;;5.50;;
22711;SDS011;11523;50.390;8.072;2023-07-08T17:50:53;8.23;;;5.53;;
22711;SDS011;11523;50.390;8.072;2023-07-08T17:53:20;13.25;;;5.28;;
22711;SDS011;11523;50.390;8.072;2023-07-08T17:55:47;12.20;;;5.60;;
22711;SDS011;11523;50.390;8.072;2023-07-08T17:58:14;12.40;;;5.47;;
22711;SDS011;11523;50.390;8.072;2023-07-08T18:00:40;7.65;;;5.35;;
22711;SDS011;11523;50.390;8.072;2023-07-08T18:03:09;12.57;;;5.93;;
22711;SDS011;11523;50.390;8.072;2023-07-08T18:05:35;11.35;;;5.95;;
22711;SDS011;11523;50.390;8.072;2023-07-08T18:08:01;9.02;;;5.95;;
22711;SDS011;11523;50.390;8.072;2023-07-08T18:10:28;7.57;;;5.68;;
22711;SDS011;11523;50.390;8.072;2023-07-08T18:12:54;6.78;;;5.10;;
22711;SDS011;11523;50.390;8.072;2023-07-08T18:15:22;8.45;;;4.75;;
22711;SDS011;11523;50.390;8.072;2023-07-08T18:17:49;7.93;;;5.05;;
22711;SDS011;11523;50.390;8.072;2023-07-08T18:20:16;12.00;;;5.40;;
22711;SDS011;11523;50.390;8.072;2023-07-08T18:22:44;7.10;;;5.88;;
22711;SDS011;11523;50.390;8.072;2023-07-08T18:25:11;8.48;;;5.43;;
22711;SDS011;11523;50.390;8.072;2023-07-08T18:27:37;8.18;;;5.97;;
22711;SDS011;11523;50.390;8.072;2023-07-08T18:30:04;7.82;;;5.22;;
22711;SDS011;11523;50.390;8.072;2023-07-08T18:32:30;9.43;;;7.97;;
22711;SDS011;11523;50.390;8.072;2023-07-08T18:34:56;9.10;;;6.20;;
22711;SDS011;11523;50.390;8.072;2023-07-08T18:37:22;33.47;;;29.35;;
22711;SDS011;11523;50.390;8.072;2023-07-08T18:39:47;28.80;;;24.98;;
22711;SDS011;11523;50.390;8.072;2023-07-08T18:42:13;11.85;;;5.55;;
22711;SDS011;11523;50.390;8.072;2023-07-08T18:44:39;8.48;;;6.20;;
22711;SDS011;11523;50.390;8.072;2023-07-08T18:47:08;9.85;;;5.80;;
22711;SDS011;11523;50.390;8.072;2023-07-08T18:49:35;16.17;;;10.88;;
22711;SDS011;11523;50.390;8.072;2023-07-08T18:52:01;39.63;;;32.00;;
22711;SDS011;11523;50.390;8.072;2023-07-08T18:54:29;41.00;;;36.58;;
22711;SDS011;11523;50.390;8.072;2023-07-08T18:56:54;36.08;;;29.23;;
22711;SDS011;11523;50.390;8.072;2023-07-08T18:59:21;12.98;;;10.80;;
22711;SDS011;11523;50.390;8.072;2023-07-08T19:01:47;12.20;;;8.20;;
22711;SDS011;11523;50.390;8.072;2023-07-08T19:06:46;6.15;;;5.45;;
22711;SDS011;11523;50.390;8.072;2023-07-08T19:09:12;9.73;;;5.68;;
22711;SDS011;11523;50.390;8.072;2023-07-08T19:11:39;8.75;;;6.10;;
22711;SDS011;11523;50.390;8.072;2023-07-08T19:14:12;11.23;;;6.32;;
22711;SDS011;11523;50.390;8.072;2023-07-08T19:16:39;8.45;;;6.13;;
22711;SDS011;11523;50.390;8.072;2023-07-08T19:19:05;17.88;;;6.25;;
22711;SDS011;11523;50.390;8.072;2023-07-08T19:21:31;9.18;;;6.45;;
22711;SDS011;11523;50.390;8.072;2023-07-08T19:23:57;10.02;;;6.05;;
22711;SDS011;11523;50.390;8.072;2023-07-08T19:26:24;10.02;;;6.28;;
22711;SDS011;11523;50.390;8.072;2023-07-08T19:28:50;10.27;;;6.53;;
22711;SDS011;11523;50.390;8.072;2023-07-08T19:31:21;8.10;;;5.60;;